sensor_id;sensor_type;location;lat;lon;timestamp;P1;durP1;ratioP1;P2;durP2;ratioP2
15171;SDS011;7686;52.184;9.280;2023-02-04T00:02:02;1.77;;;0.90;;
15171;SDS011;7686;52.184;9.280;2023-02-04T00:04:29;1.42;;;0.70;;
15171;SDS011;7686;52.184;9.280;2023-02-04T00:06:55;0.63;;;0.60;;
15171;SDS011;7686;52.184;9.280;2023-02-04T00:09:22;1.40;;;0.70;;
15171;SDS011;7686;52.184;9.280;2023-02-04T00:11:48;1.13;;;0.60;;
15171;SDS011;7686;52.184;9.280;2023-02-04T00:14:15;1.70;;;0.80;;
15171;SDS011;7686;52.184;9.280;2023-02-04T00:16:42;1.38;;;0.90;;
15171;SDS011;7686;52.184;9.280;2023-02-04T00:19:08;1.35;;;0.73;;
15171;SDS011;7686;52.184;9.280;2023-02-04T00:21:35;1.23;;;0.60;;
15171;SDS011;7686;52.184;9.280;2023-02-04T00:24:01;0.70;;;0.55;;
15171;SDS011;7686;52.184;9.280;2023-02-04T00:26:29;1.77;;;0.90;;
15171;SDS011;7686;52.184;9.280;2023-02-04T00:28:55;0.75;;;0.65;;
15171;SDS011;7686;52.184;9.280;2023-02-04T00:31:22;0.77;;;0.60;;
15171;SDS011;7686;52.184;9.280;2023-02-04T00:33:48;2.20;;;0.68;;
15171;SDS011;7686;52.184;9.280;2023-02-04T00:36:15;1.23;;;0.60;;
15171;SDS011;7686;52.184;9.280;2023-02-04T00:38:42;1.50;;;0.60;;
15171;SDS011;7686;52.184;9.280;2023-02-04T00:41:08;1.42;;;0.60;;
15171;SDS011;7686;52.184;9.280;2023-02-04T00:43:35;1.23;;;0.70;;
15171;SDS011;7686;52.184;9.280;2023-02-04T00:46:01;1.00;;;0.55;;
15171;SDS011;7686;52.184;9.280;2023-02-04T00:48:28;2.30;;;0.80;;
15171;SDS011;7686;52.184;9.280;2023-02-04T00:50:55;1.33;;;0.77;;
15171;SDS011;7686;52.184;9.280;2023-02-04T00:53:21;1.23;;;0.60;;
15171;SDS011;7686;52.184;9.280;2023-02-04T00:55:48;1.00;;;0.55;;
15171;SDS011;7686;52.184;9.280;2023-02-04T00:58:14;1.00;;;0.60;;
15171;SDS011;7686;52.184;9.280;2023-02-04T01:00:41;1.60;;;0.80;;
15171;SDS011;7686;52.184;9.280;2023-02-04T01:03:08;1.50;;;0.70;;
15171;SDS011;7686;52.184;9.280;2023-02-04T01:05:35;1.10;;;0.60;;
15171;SDS011;7686;52.184;9.280;2023-02-04T01:08:01;1.20;;;0.60;;
15171;SDS011;7686;52.184;9.280;2023-02-04T01:10:28;1.38;;;0.63;;
15171;SDS011;7686;52.184;9.280;2023-02-04T01:12:55;1.08;;;0.70;;
15171;SDS011;7686;52.184;9.280;2023-02-04T01:15:22;1.23;;;0.55;;
15171;SDS011;7686;52.184;9.280;2023-02-04T01:17:48;1.27;;;0.77;;
15171;SDS011;7686;52.184;9.280;2023-02-04T01:20:15;1.52;;;0.70;;
15171;SDS011;7686;52.184;9.280;2023-02-04T01:22:42;1.25;;;0.65;;
15171;SDS011;7686;52.184;9.280;2023-02-04T01:25:09;1.95;;;0.75;;
15171;SDS011;7686;52.184;9.280;2023-02-04T01:27:35;1.17;;;0.65;;
15171;SDS011;7686;52.184;9.280;2023-02-04T01:30:03;1.02;;;0.63;;
15171;SDS011;7686;52.184;9.280;2023-02-04T01:32:30;0.88;;;0.63;;
15171;SDS011;7686;52.184;9.280;2023-02-04T01:34:57;1.48;;;0.75;;
15171;SDS011;7686;52.184;9.280;2023-02-04T01:37:23;1.05;;;0.60;;
15171;SDS011;7686;52.184;9.280;2023-02-04T01:39:50;1.55;;;0.73;;
15171;SDS011;7686;52.184;9.280;2023-02-04T01:42:17;0.57;;;0.47;;
15171;SDS011;7686;52.184;9.280;2023-02-04T01:44:43;1.75;;;0.65;;
15171;SDS011;7686;52.184;9.280;2023-02-04T01:47:10;0.70;;;0.68;;
15171;SDS011;7686;52.184;9.280;2023-02-04T01:49:37;1.00;;;0.60;;
15171;SDS011;7686;52.184;9.280;2023-02-04T01:52:04;2.10;;;0.75;;
15171;SDS011;7686;52.184;9.280;2023-02-04T01:54:31;1.67;;;0.70;;
15171;SDS011;7686;52.184;9.280;2023-02-04T01:56:58;1.73;;;0.60;;
15171;SDS011;7686;52.184;9.280;2023-02-04T01:59:24;1.30;;;0.77;;
15171;SDS011;7686;52.184;9.280;2023-02-04T02:01:52;1.25;;;0.57;;
15171;SDS011;7686;52.184;9.280;2023-02-04T02:04:21;0.90;;;0.50;;
15171;SDS011;7686;52.184;9.280;2023-02-04T02:06:55;0.77;;;0.55;;
15171;SDS011;7686;52.184;9.280;2023-02-04T02:09:24;1.35;;;0.75;;
15171;SDS011;7686;52.184;9.280;2023-02-04T02:11:52;0.95;;;0.60;;
15171;SDS011;7686;52.184;9.280;2023-02-04T02:14:19;1.25;;;0.68;;
15171;SDS011;7686;52.184;9.280;2023-02-04T02:16:46;1.20;;;0.70;;
15171;SDS011;7686;52.184;9.280;2023-02-04T02:19:14;0.85;;;0.52;;
15171;SDS011;7686;52.184;9.280;2023-02-04T02:22:10;1.30;;;0.70;;
15171;SDS011;7686;52.184;9.280;2023-02-04T02:24:53;0.95;;;0.70;;
15171;SDS011;7686;52.184;9.280;2023-02-04T02:27:20;1.65;;;0.77;;
15171;SDS011;7686;52.184;9.280;2023-02-04T02:29:49;0.93;;;0.60;;
15171;SDS011;7686;52.184;9.280;2023-02-04T02:32:16;1.40;;;0.60;;
15171;SDS011;7686;52.184;9.280;2023-02-04T02:34:43;0.85;;;0.63;;
15171;SDS011;7686;52.184;9.280;2023-02-04T02:37:11;1.38;;;0.63;;
15171;SDS011;7686;52.184;9.280;2023-02-04T02:39:39;0.60;;;0.50;;
15171;SDS011;7686;52.184;9.280;2023-02-04T02:42:11;1.63;;;0.80;;
15171;SDS011;7686;52.184;9.280;2023-02-04T02:44:41;1.15;;;0.60;;
15171;SDS011;7686;52.184;9.280;2023-02-04T02:47:11;0.93;;;0.52;;
15171;SDS011;7686;52.184;9.280;2023-02-04T02:49:40;0.98;;;0.70;;
15171;SDS011;7686;52.184;9.280;2023-02-04T02:52:11;0.80;;;0.60;;
15171;SDS011;7686;52.184;9.280;2023-02-04T02:54:38;1.55;;;0.70;;
15171;SDS011;7686;52.184;9.280;2023-02-04T02:57:12;0.70;;;0.70;;
15171;SDS011;7686;52.184;9.280;2023-02-04T02:59:41;1.30;;;0.80;;
15171;SDS011;7686;52.184;9.280;2023-02-04T03:02:08;1.63;;;0.80;;
15171;SDS011;7686;52.184;9.280;2023-02-04T03:04:39;0.70;;;0.50;;
15171;SDS011;7686;52.184;9.280;2023-02-04T03:07:09;0.95;;;0.65;;
15171;SDS011;7686;52.184;9.280;2023-02-04T03:09:37;1.00;;;0.60;;
15171;SDS011;7686;52.184;9.280;2023-02-04T03:12:04;1.88;;;0.70;;
15171;SDS011;7686;52.184;9.280;2023-02-04T03:14:31;0.87;;;0.60;;
15171;SDS011;7686;52.184;9.280;2023-02-04T03:16:58;1.23;;;0.70;;
15171;SDS011;7686;52.184;9.280;2023-02-04T03:19:27;1.33;;;0.60;;
15171;SDS011;7686;52.184;9.280;2023-02-04T03:21:54;1.00;;;0.60;;
15171;SDS011;7686;52.184;9.280;2023-02-04T03:24:21;0.50;;;0.50;;
15171;SDS011;7686;52.184;9.280;2023-02-04T03:26:48;0.80;;;0.60;;
15171;SDS011;7686;52.184;9.280;2023-02-04T03:29:15;0.40;;;0.40;;
15171;SDS011;7686;52.184;9.280;2023-02-04T03:31:42;0.52;;;0.50;;
15171;SDS011;7686;52.184;9.280;2023-02-04T03:34:09;1.38;;;0.75;;
15171;SDS011;7686;52.184;9.280;2023-02-04T03:36:35;1.05;;;0.50;;
15171;SDS011;7686;52.184;9.280;2023-02-04T03:39:02;0.70;;;0.70;;
15171;SDS011;7686;52.184;9.280;2023-02-04T03:41:29;0.60;;;0.55;;
15171;SDS011;7686;52.184;9.280;2023-02-04T03:43:56;0.70;;;0.60;;
15171;SDS011;7686;52.184;9.280;2023-02-04T03:46:23;0.82;;;0.55;;
15171;SDS011;7686;52.184;9.280;2023-02-04T03:48:51;0.50;;;0.40;;
15171;SDS011;7686;52.184;9.280;2023-02-04T03:51:17;0.88;;;0.60;;
15171;SDS011;7686;52.184;9.280;2023-02-04T03:53:44;1.35;;;0.50;;
15171;SDS011;7686;52.184;9.280;2023-02-04T03:56:10;0.90;;;0.55;;
15171;SDS011;7686;52.184;9.280;2023-02-04T03:58:37;1.65;;;0.52;;
15171;SDS011;7686;52.184;9.280;2023-02-04T04:01:03;0.75;;;0.60;;
15171;SDS011;7686;52.184;9.280;2023-02-04T04:03:30;1.17;;;0.70;;
15171;SDS011;7686;52.184;9.280;2023-02-04T04:05:57;0.93;;;0.70;;
15171;SDS011;7686;52.184;9.280;2023-02-04T04:08:23;1.23;;;0.60;;
15171;SDS011;7686;52.184;9.280;2023-02-04T04:10:50;0.60;;;0.50;;
15171;SDS011;7686;52.184;9.280;2023-02-04T04:13:17;0.90;;;0.60;;
15171;SDS011;7686;52.184;9.280;2023-02-04T04:15:43;1.15;;;0.47;;
15171;SDS011;7686;52.184;9.280;2023-02-04T04:18:10;0.40;;;0.35;;
15171;SDS011;7686;52.184;9.280;2023-02-04T04:20:37;0.90;;;0.50;;
15171;SDS011;7686;52.184;9.280;2023-02-04T04:23:03;1.20;;;0.68;;
15171;SDS011;7686;52.184;9.280;2023-02-04T04:25:30;0.50;;;0.50;;
15171;SDS011;7686;52.184;9.280;2023-02-04T04:27:56;1.63;;;0.70;;
15171;SDS011;7686;52.184;9.280;2023-02-04T04:30:23;1.00;;;0.60;;
15171;SDS011;7686;52.184;9.280;2023-02-04T04:32:50;0.50;;;0.50;;
15171;SDS011;7686;52.184;9.280;2023-02-04T04:35:17;0.57;;;0.50;;
15171;SDS011;7686;52.184;9.280;2023-02-04T04:37:43;1.27;;;0.60;;
15171;SDS011;7686;52.184;9.280;2023-02-04T04:40:10;1.85;;;0.80;;
15171;SDS011;7686;52.184;9.280;2023-02-04T04:42:37;0.88;;;0.50;;
15171;SDS011;7686;52.184;9.280;2023-02-04T04:45:05;1.35;;;0.70;;
15171;SDS011;7686;52.184;9.280;2023-02-04T04:47:33;0.47;;;0.47;;
15171;SDS011;7686;52.184;9.280;2023-02-04T04:49:59;0.70;;;0.52;;
15171;SDS011;7686;52.184;9.280;2023-02-04T04:52:26;0.93;;;0.50;;
15171;SDS011;7686;52.184;9.280;2023-02-04T04:54:53;0.93;;;0.60;;
15171;SDS011;7686;52.184;9.280;2023-02-04T04:57:19;0.65;;;0.60;;
15171;SDS011;7686;52.184;9.280;2023-02-04T04:59:46;1.25;;;0.55;;
15171;SDS011;7686;52.184;9.280;2023-02-04T05:02:13;0.80;;;0.50;;
15171;SDS011;7686;52.184;9.280;2023-02-04T05:04:39;0.60;;;0.47;;
15171;SDS011;7686;52.184;9.280;2023-02-04T05:07:06;0.90;;;0.68;;
15171;SDS011;7686;52.184;9.280;2023-02-04T05:09:32;0.70;;;0.50;;
15171;SDS011;7686;52.184;9.280;2023-02-04T05:11:59;0.52;;;0.50;;
15171;SDS011;7686;52.184;9.280;2023-02-04T05:14:26;0.95;;;0.60;;
15171;SDS011;7686;52.184;9.280;2023-02-04T05:16:52;0.65;;;0.47;;
15171;SDS011;7686;52.184;9.280;2023-02-04T05:19:19;0.50;;;0.50;;
15171;SDS011;7686;52.184;9.280;2023-02-04T05:21:45;0.50;;;0.50;;
15171;SDS011;7686;52.184;9.280;2023-02-04T05:24:12;0.90;;;0.60;;
15171;SDS011;7686;52.184;9.280;2023-02-04T05:26:39;0.45;;;0.40;;
15171;SDS011;7686;52.184;9.280;2023-02-04T05:29:05;0.82;;;0.40;;
15171;SDS011;7686;52.184;9.280;2023-02-04T05:31:32;0.40;;;0.40;;
15171;SDS011;7686;52.184;9.280;2023-02-04T05:33:59;0.45;;;0.40;;
15171;SDS011;7686;52.184;9.280;2023-02-04T05:36:26;0.40;;;0.30;;
15171;SDS011;7686;52.184;9.280;2023-02-04T05:38:53;0.50;;;0.50;;
15171;SDS011;7686;52.184;9.280;2023-02-04T05:41:19;0.50;;;0.43;;
15171;SDS011;7686;52.184;9.280;2023-02-04T05:43:46;0.73;;;0.50;;
15171;SDS011;7686;52.184;9.280;2023-02-04T05:46:12;0.30;;;0.30;;
15171;SDS011;7686;52.184;9.280;2023-02-04T05:48:39;0.95;;;0.35;;
15171;SDS011;7686;52.184;9.280;2023-02-04T05:51:06;0.30;;;0.30;;
15171;SDS011;7686;52.184;9.280;2023-02-04T05:53:32;0.50;;;0.50;;
15171;SDS011;7686;52.184;9.280;2023-02-04T05:55:59;0.50;;;0.47;;
15171;SDS011;7686;52.184;9.280;2023-02-04T05:58:25;0.52;;;0.38;;
15171;SDS011;7686;52.184;9.280;2023-02-04T06:00:58;0.70;;;0.50;;
15171;SDS011;7686;52.184;9.280;2023-02-04T06:03:26;0.43;;;0.38;;
15171;SDS011;7686;52.184;9.280;2023-02-04T06:05:53;0.75;;;0.50;;
15171;SDS011;7686;52.184;9.280;2023-02-04T06:08:20;1.10;;;0.40;;
15171;SDS011;7686;52.184;9.280;2023-02-04T06:10:47;0.50;;;0.50;;
15171;SDS011;7686;52.184;9.280;2023-02-04T06:13:13;0.38;;;0.35;;
15171;SDS011;7686;52.184;9.280;2023-02-04T06:15:40;0.30;;;0.30;;
15171;SDS011;7686;52.184;9.280;2023-02-04T06:18:07;0.45;;;0.40;;
15171;SDS011;7686;52.184;9.280;2023-02-04T06:20:34;0.40;;;0.40;;
15171;SDS011;7686;52.184;9.280;2023-02-04T06:23:01;0.47;;;0.47;;
15171;SDS011;7686;52.184;9.280;2023-02-04T06:25:27;0.40;;;0.40;;
15171;SDS011;7686;52.184;9.280;2023-02-04T06:27:54;0.40;;;0.40;;
15171;SDS011;7686;52.184;9.280;2023-02-04T06:30:20;0.70;;;0.45;;
15171;SDS011;7686;52.184;9.280;2023-02-04T06:32:47;0.77;;;0.50;;
15171;SDS011;7686;52.184;9.280;2023-02-04T06:35:14;0.38;;;0.30;;
15171;SDS011;7686;52.184;9.280;2023-02-04T06:37:42;0.50;;;0.38;;
15171;SDS011;7686;52.184;9.280;2023-02-04T06:40:09;0.68;;;0.32;;
15171;SDS011;7686;52.184;9.280;2023-02-04T06:42:37;0.63;;;0.30;;
15171;SDS011;7686;52.184;9.280;2023-02-04T06:45:03;0.45;;;0.40;;
15171;SDS011;7686;52.184;9.280;2023-02-04T06:47:30;0.25;;;0.25;;
15171;SDS011;7686;52.184;9.280;2023-02-04T06:49:57;0.65;;;0.47;;
15171;SDS011;7686;52.184;9.280;2023-02-04T06:52:24;0.55;;;0.30;;
15171;SDS011;7686;52.184;9.280;2023-02-04T06:54:50;0.40;;;0.40;;
15171;SDS011;7686;52.184;9.280;2023-02-04T06:57:17;0.45;;;0.43;;
15171;SDS011;7686;52.184;9.280;2023-02-04T06:59:43;0.32;;;0.32;;
15171;SDS011;7686;52.184;9.280;2023-02-04T07:02:12;0.30;;;0.30;;
15171;SDS011;7686;52.184;9.280;2023-02-04T07:04:39;0.40;;;0.40;;
15171;SDS011;7686;52.184;9.280;2023-02-04T07:07:09;0.43;;;0.43;;
15171;SDS011;7686;52.184;9.280;2023-02-04T07:09:36;0.65;;;0.32;;
15171;SDS011;7686;52.184;9.280;2023-02-04T07:12:05;0.93;;;0.47;;
15171;SDS011;7686;52.184;9.280;2023-02-04T07:14:32;0.30;;;0.30;;
15171;SDS011;7686;52.184;9.280;2023-02-04T07:16:59;1.00;;;0.45;;
15171;SDS011;7686;52.184;9.280;2023-02-04T07:19:26;0.68;;;0.57;;
15171;SDS011;7686;52.184;9.280;2023-02-04T07:21:52;0.55;;;0.30;;
15171;SDS011;7686;52.184;9.280;2023-02-04T07:24:22;0.40;;;0.30;;
15171;SDS011;7686;52.184;9.280;2023-02-04T07:26:49;0.38;;;0.38;;
15171;SDS011;7686;52.184;9.280;2023-02-04T07:29:16;0.38;;;0.38;;
15171;SDS011;7686;52.184;9.280;2023-02-04T07:31:50;1.58;;;0.40;;
15171;SDS011;7686;52.184;9.280;2023-02-04T07:34:18;0.43;;;0.43;;
15171;SDS011;7686;52.184;9.280;2023-02-04T07:36:45;0.40;;;0.40;;
15171;SDS011;7686;52.184;9.280;2023-02-04T07:39:12;0.28;;;0.28;;
15171;SDS011;7686;52.184;9.280;2023-02-04T07:41:39;0.75;;;0.50;;
15171;SDS011;7686;52.184;9.280;2023-02-04T07:44:06;0.47;;;0.40;;
15171;SDS011;7686;52.184;9.280;2023-02-04T07:46:32;0.30;;;0.30;;
15171;SDS011;7686;52.184;9.280;2023-02-04T07:48:59;0.57;;;0.40;;
15171;SDS011;7686;52.184;9.280;2023-02-04T07:51:26;0.90;;;0.40;;
15171;SDS011;7686;52.184;9.280;2023-02-04T07:53:53;0.43;;;0.43;;
15171;SDS011;7686;52.184;9.280;2023-02-04T07:56:21;0.30;;;0.30;;
15171;SDS011;7686;52.184;9.280;2023-02-04T07:58:48;0.22;;;0.22;;
15171;SDS011;7686;52.184;9.280;2023-02-04T08:01:14;0.50;;;0.30;;
15171;SDS011;7686;52.184;9.280;2023-02-04T08:03:41;0.85;;;0.40;;
15171;SDS011;7686;52.184;9.280;2023-02-04T08:06:08;0.40;;;0.40;;
15171;SDS011;7686;52.184;9.280;2023-02-04T08:08:35;0.45;;;0.30;;
15171;SDS011;7686;52.184;9.280;2023-02-04T08:11:02;0.32;;;0.28;;
15171;SDS011;7686;52.184;9.280;2023-02-04T08:13:28;0.30;;;0.30;;
15171;SDS011;7686;52.184;9.280;2023-02-04T08:15:55;0.40;;;0.40;;
15171;SDS011;7686;52.184;9.280;2023-02-04T08:18:21;0.30;;;0.30;;
15171;SDS011;7686;52.184;9.280;2023-02-04T08:20:50;0.40;;;0.32;;
15171;SDS011;7686;52.184;9.280;2023-02-04T08:23:17;1.50;;;0.32;;
15171;SDS011;7686;52.184;9.280;2023-02-04T08:25:43;0.40;;;0.40;;
15171;SDS011;7686;52.184;9.280;2023-02-04T08:28:10;0.30;;;0.30;;
15171;SDS011;7686;52.184;9.280;2023-02-04T08:30:37;0.47;;;0.20;;
15171;SDS011;7686;52.184;9.280;2023-02-04T08:33:04;0.25;;;0.25;;
15171;SDS011;7686;52.184;9.280;2023-02-04T08:35:31;0.28;;;0.28;;
15171;SDS011;7686;52.184;9.280;2023-02-04T08:37:57;0.35;;;0.35;;
15171;SDS011;7686;52.184;9.280;2023-02-04T08:40:24;0.40;;;0.40;;
15171;SDS011;7686;52.184;9.280;2023-02-04T08:42:50;0.28;;;0.28;;
15171;SDS011;7686;52.184;9.280;2023-02-04T08:45:17;0.45;;;0.40;;
15171;SDS011;7686;52.184;9.280;2023-02-04T08:47:44;0.30;;;0.30;;
15171;SDS011;7686;52.184;9.280;2023-02-04T08:50:10;0.55;;;0.40;;
15171;SDS011;7686;52.184;9.280;2023-02-04T08:52:37;0.98;;;0.40;;
15171;SDS011;7686;52.184;9.280;2023-02-04T08:55:04;0.35;;;0.35;;
15171;SDS011;7686;52.184;9.280;2023-02-04T08:57:31;0.30;;;0.30;;
15171;SDS011;7686;52.184;9.280;2023-02-04T08:59:59;0.40;;;0.30;;
15171;SDS011;7686;52.184;9.280;2023-02-04T09:02:25;0.98;;;0.28;;
15171;SDS011;7686;52.184;9.280;2023-02-04T09:04:52;0.20;;;0.20;;
15171;SDS011;7686;52.184;9.280;2023-02-04T09:07:19;0.38;;;0.35;;
15171;SDS011;7686;52.184;9.280;2023-02-04T09:09:46;0.35;;;0.35;;
15171;SDS011;7686;52.184;9.280;2023-02-04T09:12:13;0.30;;;0.30;;
15171;SDS011;7686;52.184;9.280;2023-02-04T09:14:40;0.30;;;0.30;;
15171;SDS011;7686;52.184;9.280;2023-02-04T09:17:06;1.15;;;0.57;;
15171;SDS011;7686;52.184;9.280;2023-02-04T09:19:33;0.40;;;0.40;;
15171;SDS011;7686;52.184;9.280;2023-02-04T09:21:59;0.30;;;0.30;;
15171;SDS011;7686;52.184;9.280;2023-02-04T09:24:26;0.65;;;0.40;;
15171;SDS011;7686;52.184;9.280;2023-02-04T09:26:53;0.77;;;0.40;;
15171;SDS011;7686;52.184;9.280;2023-02-04T09:29:19;0.60;;;0.40;;
15171;SDS011;7686;52.184;9.280;2023-02-04T09:31:46;3.00;;;0.50;;
15171;SDS011;7686;52.184;9.280;2023-02-04T09:34:14;1.35;;;0.38;;
15171;SDS011;7686;52.184;9.280;2023-02-04T09:36:40;0.70;;;0.50;;
15171;SDS011;7686;52.184;9.280;2023-02-04T09:39:07;0.60;;;0.50;;
15171;SDS011;7686;52.184;9.280;2023-02-04T09:41:37;1.35;;;0.40;;
15171;SDS011;7686;52.184;9.280;2023-02-04T09:44:09;1.70;;;0.60;;
15171;SDS011;7686;52.184;9.280;2023-02-04T09:46:39;0.73;;;0.40;;
15171;SDS011;7686;52.184;9.280;2023-02-04T09:49:10;0.28;;;0.28;;
15171;SDS011;7686;52.184;9.280;2023-02-04T09:51:37;0.77;;;0.38;;
15171;SDS011;7686;52.184;9.280;2023-02-04T09:54:20;1.30;;;0.50;;
15171;SDS011;7686;52.184;9.280;2023-02-04T09:56:47;1.70;;;0.45;;
15171;SDS011;7686;52.184;9.280;2023-02-04T09:59:17;1.95;;;0.70;;
15171;SDS011;7686;52.184;9.280;2023-02-04T10:01:47;1.20;;;0.60;;
15171;SDS011;7686;52.184;9.280;2023-02-04T10:04:20;2.20;;;0.63;;
15171;SDS011;7686;52.184;9.280;2023-02-04T10:06:47;1.23;;;0.55;;
15171;SDS011;7686;52.184;9.280;2023-02-04T10:09:14;2.08;;;0.80;;
15171;SDS011;7686;52.184;9.280;2023-02-04T10:11:41;1.35;;;0.80;;
15171;SDS011;7686;52.184;9.280;2023-02-04T10:14:15;1.00;;;0.77;;
15171;SDS011;7686;52.184;9.280;2023-02-04T10:16:50;1.90;;;0.80;;
15171;SDS011;7686;52.184;9.280;2023-02-04T10:19:23;2.92;;;0.80;;
15171;SDS011;7686;52.184;9.280;2023-02-04T10:21:51;1.48;;;0.80;;
15171;SDS011;7686;52.184;9.280;2023-02-04T10:24:19;4.22;;;1.10;;
15171;SDS011;7686;52.184;9.280;2023-02-04T10:26:50;1.05;;;0.70;;
15171;SDS011;7686;52.184;9.280;2023-02-04T10:29:19;1.88;;;0.85;;
15171;SDS011;7686;52.184;9.280;2023-02-04T10:31:49;1.83;;;1.00;;
15171;SDS011;7686;52.184;9.280;2023-02-04T10:36:54;2.08;;;1.00;;
15171;SDS011;7686;52.184;9.280;2023-02-04T10:39:23;1.50;;;0.85;;
15171;SDS011;7686;52.184;9.280;2023-02-04T10:41:55;1.67;;;0.73;;
15171;SDS011;7686;52.184;9.280;2023-02-04T10:44:29;2.13;;;0.70;;
15171;SDS011;7686;52.184;9.280;2023-02-04T10:47:05;2.28;;;0.90;;
15171;SDS011;7686;52.184;9.280;2023-02-04T10:49:40;2.55;;;1.00;;
15171;SDS011;7686;52.184;9.280;2023-02-04T10:52:16;1.60;;;0.90;;
15171;SDS011;7686;52.184;9.280;2023-02-04T10:54:45;1.13;;;0.80;;
15171;SDS011;7686;52.184;9.280;2023-02-04T10:57:20;1.67;;;0.90;;
15171;SDS011;7686;52.184;9.280;2023-02-04T10:59:51;2.15;;;0.80;;
15171;SDS011;7686;52.184;9.280;2023-02-04T11:05:09;1.80;;;0.82;;
15171;SDS011;7686;52.184;9.280;2023-02-04T11:07:41;1.67;;;0.75;;
15171;SDS011;7686;52.184;9.280;2023-02-04T11:10:12;1.95;;;0.80;;
15171;SDS011;7686;52.184;9.280;2023-02-04T11:15:35;2.08;;;0.80;;
15171;SDS011;7686;52.184;9.280;2023-02-04T11:18:24;3.83;;;0.90;;
15171;SDS011;7686;52.184;9.280;2023-02-04T11:20:54;1.40;;;0.60;;
15171;SDS011;7686;52.184;9.280;2023-02-04T11:28:54;2.05;;;0.90;;
15171;SDS011;7686;52.184;9.280;2023-02-04T11:36:54;0.77;;;0.70;;
15171;SDS011;7686;52.184;9.280;2023-02-04T11:39:37;1.45;;;0.70;;
15171;SDS011;7686;52.184;9.280;2023-02-04T11:42:17;2.35;;;0.88;;
15171;SDS011;7686;52.184;9.280;2023-02-04T11:44:50;2.45;;;0.80;;
15171;SDS011;7686;52.184;9.280;2023-02-04T11:47:23;1.20;;;0.65;;
15171;SDS011;7686;52.184;9.280;2023-02-04T11:50:01;1.70;;;0.75;;
15171;SDS011;7686;52.184;9.280;2023-02-04T11:52:35;1.30;;;0.70;;
15171;SDS011;7686;52.184;9.280;2023-02-04T11:55:02;1.50;;;0.60;;
15171;SDS011;7686;52.184;9.280;2023-02-04T11:57:36;1.35;;;0.63;;
15171;SDS011;7686;52.184;9.280;2023-02-04T12:00:13;1.90;;;0.75;;
15171;SDS011;7686;52.184;9.280;2023-02-04T12:02:43;1.98;;;0.80;;
15171;SDS011;7686;52.184;9.280;2023-02-04T12:05:21;1.52;;;0.70;;
15171;SDS011;7686;52.184;9.280;2023-02-04T12:08:07;2.63;;;0.80;;
15171;SDS011;7686;52.184;9.280;2023-02-04T12:10:37;1.58;;;0.82;;
15171;SDS011;7686;52.184;9.280;2023-02-04T12:13:11;1.55;;;0.80;;
15171;SDS011;7686;52.184;9.280;2023-02-04T12:15:41;1.23;;;0.60;;
15171;SDS011;7686;52.184;9.280;2023-02-04T12:18:16;2.80;;;0.93;;
15171;SDS011;7686;52.184;9.280;2023-02-04T12:20:43;1.65;;;0.73;;
15171;SDS011;7686;52.184;9.280;2023-02-04T12:23:10;1.88;;;0.90;;
15171;SDS011;7686;52.184;9.280;2023-02-04T12:25:36;1.55;;;0.60;;
15171;SDS011;7686;52.184;9.280;2023-02-04T12:28:03;1.40;;;0.80;;
15171;SDS011;7686;52.184;9.280;2023-02-04T12:30:30;0.85;;;0.63;;
15171;SDS011;7686;52.184;9.280;2023-02-04T12:32:56;0.90;;;0.60;;
15171;SDS011;7686;52.184;9.280;2023-02-04T12:35:23;1.13;;;0.70;;
15171;SDS011;7686;52.184;9.280;2023-02-04T12:37:49;2.33;;;0.63;;
15171;SDS011;7686;52.184;9.280;2023-02-04T12:40:17;0.55;;;0.52;;
15171;SDS011;7686;52.184;9.280;2023-02-04T12:42:45;1.00;;;0.65;;
15171;SDS011;7686;52.184;9.280;2023-02-04T12:45:13;0.80;;;0.50;;
15171;SDS011;7686;52.184;9.280;2023-02-04T12:47:41;1.17;;;0.70;;
15171;SDS011;7686;52.184;9.280;2023-02-04T12:50:09;1.23;;;0.52;;
15171;SDS011;7686;52.184;9.280;2023-02-04T12:52:38;1.13;;;0.60;;
15171;SDS011;7686;52.184;9.280;2023-02-04T12:55:05;1.40;;;0.65;;
15171;SDS011;7686;52.184;9.280;2023-02-04T12:57:33;1.23;;;0.70;;
15171;SDS011;7686;52.184;9.280;2023-02-04T13:00:00;0.55;;;0.52;;
15171;SDS011;7686;52.184;9.280;2023-02-04T13:02:27;1.58;;;0.55;;
15171;SDS011;7686;52.184;9.280;2023-02-04T13:04:54;0.77;;;0.50;;
15171;SDS011;7686;52.184;9.280;2023-02-04T13:07:21;1.42;;;0.65;;
15171;SDS011;7686;52.184;9.280;2023-02-04T13:09:48;0.70;;;0.60;;
15171;SDS011;7686;52.184;9.280;2023-02-04T13:12:15;0.60;;;0.60;;
15171;SDS011;7686;52.184;9.280;2023-02-04T13:14:41;1.20;;;0.60;;
15171;SDS011;7686;52.184;9.280;2023-02-04T13:17:08;1.00;;;0.47;;
15171;SDS011;7686;52.184;9.280;2023-02-04T13:19:35;0.75;;;0.57;;
15171;SDS011;7686;52.184;9.280;2023-02-04T13:22:02;1.42;;;0.80;;
15171;SDS011;7686;52.184;9.280;2023-02-04T13:24:29;1.35;;;0.57;;
15171;SDS011;7686;52.184;9.280;2023-02-04T13:26:56;1.00;;;0.60;;
15171;SDS011;7686;52.184;9.280;2023-02-04T13:29:22;0.40;;;0.40;;
15171;SDS011;7686;52.184;9.280;2023-02-04T13:31:49;1.00;;;0.57;;
15171;SDS011;7686;52.184;9.280;2023-02-04T13:34:17;0.73;;;0.50;;
15171;SDS011;7686;52.184;9.280;2023-02-04T13:36:44;0.73;;;0.45;;
15171;SDS011;7686;52.184;9.280;2023-02-04T13:39:11;1.48;;;0.68;;
15171;SDS011;7686;52.184;9.280;2023-02-04T13:41:38;0.82;;;0.43;;
15171;SDS011;7686;52.184;9.280;2023-02-04T13:44:05;1.38;;;0.73;;
15171;SDS011;7686;52.184;9.280;2023-02-04T13:46:32;1.33;;;0.60;;
15171;SDS011;7686;52.184;9.280;2023-02-04T13:48:59;0.88;;;0.57;;
15171;SDS011;7686;52.184;9.280;2023-02-04T13:51:25;1.10;;;0.60;;
15171;SDS011;7686;52.184;9.280;2023-02-04T13:53:52;1.73;;;0.60;;
15171;SDS011;7686;52.184;9.280;2023-02-04T13:56:19;0.43;;;0.30;;
15171;SDS011;7686;52.184;9.280;2023-02-04T13:58:45;1.17;;;0.60;;
15171;SDS011;7686;52.184;9.280;2023-02-04T14:01:12;1.23;;;0.75;;
15171;SDS011;7686;52.184;9.280;2023-02-04T14:03:39;0.40;;;0.40;;
15171;SDS011;7686;52.184;9.280;2023-02-04T14:06:07;1.35;;;0.60;;
15171;SDS011;7686;52.184;9.280;2023-02-04T14:08:35;0.88;;;0.60;;
15171;SDS011;7686;52.184;9.280;2023-02-04T14:11:02;0.73;;;0.50;;
15171;SDS011;7686;52.184;9.280;2023-02-04T14:13:28;1.23;;;0.40;;
15171;SDS011;7686;52.184;9.280;2023-02-04T14:15:55;0.52;;;0.52;;
15171;SDS011;7686;52.184;9.280;2023-02-04T14:18:22;2.55;;;0.93;;
15171;SDS011;7686;52.184;9.280;2023-02-04T14:20:48;1.00;;;0.50;;
15171;SDS011;7686;52.184;9.280;2023-02-04T14:23:15;1.05;;;0.60;;
15171;SDS011;7686;52.184;9.280;2023-02-04T14:25:42;0.40;;;0.40;;
15171;SDS011;7686;52.184;9.280;2023-02-04T14:28:08;1.48;;;0.52;;
15171;SDS011;7686;52.184;9.280;2023-02-04T14:30:35;0.47;;;0.40;;
15171;SDS011;7686;52.184;9.280;2023-02-04T14:33:03;0.52;;;0.50;;
15171;SDS011;7686;52.184;9.280;2023-02-04T14:35:30;0.68;;;0.47;;
15171;SDS011;7686;52.184;9.280;2023-02-04T14:37:56;0.40;;;0.40;;
15171;SDS011;7686;52.184;9.280;2023-02-04T14:40:23;1.05;;;0.50;;
15171;SDS011;7686;52.184;9.280;2023-02-04T14:42:50;0.68;;;0.52;;
15171;SDS011;7686;52.184;9.280;2023-02-04T14:45:17;0.82;;;0.50;;
15171;SDS011;7686;52.184;9.280;2023-02-04T14:47:43;0.57;;;0.50;;
15171;SDS011;7686;52.184;9.280;2023-02-04T14:50:11;0.93;;;0.40;;
15171;SDS011;7686;52.184;9.280;2023-02-04T14:52:40;1.30;;;0.50;;
15171;SDS011;7686;52.184;9.280;2023-02-04T14:55:07;0.45;;;0.40;;
15171;SDS011;7686;52.184;9.280;2023-02-04T14:57:37;0.50;;;0.50;;
15171;SDS011;7686;52.184;9.280;2023-02-04T15:00:04;0.40;;;0.40;;
15171;SDS011;7686;52.184;9.280;2023-02-04T15:02:32;0.30;;;0.30;;
15171;SDS011;7686;52.184;9.280;2023-02-04T15:04:58;1.25;;;0.47;;
15171;SDS011;7686;52.184;9.280;2023-02-04T15:07:25;1.13;;;0.50;;
15171;SDS011;7686;52.184;9.280;2023-02-04T15:09:52;0.57;;;0.40;;
15171;SDS011;7686;52.184;9.280;2023-02-04T15:12:18;1.02;;;0.57;;
15171;SDS011;7686;52.184;9.280;2023-02-04T15:14:45;1.48;;;0.60;;
15171;SDS011;7686;52.184;9.280;2023-02-04T15:17:12;1.27;;;0.63;;
15171;SDS011;7686;52.184;9.280;2023-02-04T15:19:38;1.75;;;0.63;;
15171;SDS011;7686;52.184;9.280;2023-02-04T15:22:05;0.60;;;0.50;;
15171;SDS011;7686;52.184;9.280;2023-02-04T15:24:32;0.95;;;0.55;;